sensor_id;sensor_type;location;lat;lon;timestamp;pressure;altitude;pressure_sealevel;temperature;humidity
64908;BME280;51412;52.236;5.188;2022-07-29T00:00:25;101785.16;;;18.98;58.16
64908;BME280;51412;52.236;5.188;2022-07-29T00:02:52;101784.75;;;19.00;57.84
64908;BME280;51412;52.236;5.188;2022-07-29T00:05:18;101789.34;;;19.03;58.12
64908;BME280;51412;52.236;5.188;2022-07-29T00:07:46;101789.38;;;18.99;58.49
64908;BME280;51412;52.236;5.188;2022-07-29T00:10:13;101784.03;;;18.96;57.98
64908;BME280;51412;52.236;5.188;2022-07-29T00:12:39;101784.06;;;18.92;57.76
64908;BME280;51412;52.236;5.188;2022-07-29T00:15:06;101776.78;;;18.89;58.12
64908;BME280;51412;52.236;5.188;2022-07-29T00:17:33;101774.06;;;18.85;58.10
64908;BME280;51412;52.236;5.188;2022-07-29T00:20:00;101775.63;;;18.83;58.33
64908;BME280;51412;52.236;5.188;2022-07-29T00:22:26;101771.78;;;18.80;58.40
64908;BME280;51412;52.236;5.188;2022-07-29T00:24:54;101773.72;;;18.80;58.89
64908;BME280;51412;52.236;5.188;2022-07-29T00:27:20;101761.41;;;18.79;58.74
64908;BME280;51412;52.236;5.188;2022-07-29T00:29:47;101762.19;;;18.79;58.67
64908;BME280;51412;52.236;5.188;2022-07-29T00:32:13;101761.41;;;18.79;59.10
64908;BME280;51412;52.236;5.188;2022-07-29T00:34:40;101756.44;;;18.77;58.59
64908;BME280;51412;52.236;5.188;2022-07-29T00:37:24;101756.06;;;18.75;58.84
64908;BME280;51412;52.236;5.188;2022-07-29T00:39:51;101751.03;;;18.77;59.36
64908;BME280;51412;52.236;5.188;2022-07-29T00:42:19;101733.75;;;18.75;58.96
64908;BME280;51412;52.236;5.188;2022-07-29T00:44:45;101750.72;;;18.72;59.35
64908;BME280;51412;52.236;5.188;2022-07-29T00:47:13;101747.63;;;18.69;59.38
64908;BME280;51412;52.236;5.188;2022-07-29T00:49:41;101751.13;;;18.66;59.66
64908;BME280;51412;52.236;5.188;2022-07-29T00:52:09;101739.97;;;18.64;59.09
64908;BME280;51412;52.236;5.188;2022-07-29T00:54:36;101735.78;;;18.63;59.51
64908;BME280;51412;52.236;5.188;2022-07-29T00:57:05;101734.25;;;18.62;59.32
64908;BME280;51412;52.236;5.188;2022-07-29T00:59:34;101738.47;;;18.63;59.69
64908;BME280;51412;52.236;5.188;2022-07-29T01:02:00;101731.53;;;18.62;59.17
64908;BME280;51412;52.236;5.188;2022-07-29T01:04:27;101732.34;;;18.59;59.05
64908;BME280;51412;52.236;5.188;2022-07-29T01:06:55;101734.63;;;18.61;59.66
64908;BME280;51412;52.236;5.188;2022-07-29T01:09:22;101738.09;;;18.61;59.99
64908;BME280;51412;52.236;5.188;2022-07-29T01:11:49;101731.97;;;18.57;59.74
64908;BME280;51412;52.236;5.188;2022-07-29T01:14:16;101735.41;;;18.58;59.43
64908;BME280;51412;52.236;5.188;2022-07-29T01:16:49;101733.91;;;18.57;59.61
64908;BME280;51412;52.236;5.188;2022-07-29T01:19:41;101730.06;;;18.54;59.87
64908;BME280;51412;52.236;5.188;2022-07-29T01:22:22;101719.31;;;18.54;60.39
64908;BME280;51412;52.236;5.188;2022-07-29T01:25:12;101723.16;;;18.53;59.18
64908;BME280;51412;52.236;5.188;2022-07-29T01:27:51;101721.94;;;18.58;59.68
64908;BME280;51412;52.236;5.188;2022-07-29T01:30:27;101723.16;;;18.53;59.30
64908;BME280;51412;52.236;5.188;2022-07-29T01:32:59;101722.00;;;18.50;59.59
64908;BME280;51412;52.236;5.188;2022-07-29T01:35:28;101720.47;;;18.53;59.39
64908;BME280;51412;52.236;5.188;2022-07-29T01:38:05;101719.69;;;18.52;59.00
64908;BME280;51412;52.236;5.188;2022-07-29T01:40:36;101722.41;;;18.52;58.83
64908;BME280;51412;52.236;5.188;2022-07-29T01:43:09;101728.53;;;18.53;58.95
64908;BME280;51412;52.236;5.188;2022-07-29T01:45:40;101728.53;;;18.53;59.40
64908;BME280;51412;52.236;5.188;2022-07-29T01:48:12;101723.94;;;18.50;60.17
64908;BME280;51412;52.236;5.188;2022-07-29T01:50:46;101734.66;;;18.54;59.77
64908;BME280;51412;52.236;5.188;2022-07-29T01:53:16;101724.69;;;18.50;59.43
64908;BME280;51412;52.236;5.188;2022-07-29T01:55:45;101727.03;;;18.48;59.45
64908;BME280;51412;52.236;5.188;2022-07-29T01:58:13;101713.25;;;18.39;59.41
64908;BME280;51412;52.236;5.188;2022-07-29T02:00:43;101711.31;;;18.40;59.91
64908;BME280;51412;52.236;5.188;2022-07-29T02:03:12;101715.94;;;18.39;59.50
64908;BME280;51412;52.236;5.188;2022-07-29T02:05:41;101727.09;;;18.38;60.15
64908;BME280;51412;52.236;5.188;2022-07-29T02:08:09;101717.50;;;18.37;59.89
64908;BME280;51412;52.236;5.188;2022-07-29T02:10:38;101717.13;;;18.34;59.66
64908;BME280;51412;52.236;5.188;2022-07-29T02:13:06;101721.75;;;18.30;59.62
64908;BME280;51412;52.236;5.188;2022-07-29T02:15:34;101724.84;;;18.29;59.94
64908;BME280;51412;52.236;5.188;2022-07-29T02:18:06;101718.72;;;18.28;59.86
64908;BME280;51412;52.236;5.188;2022-07-29T02:20:34;101711.03;;;18.27;59.97
64908;BME280;51412;52.236;5.188;2022-07-29T02:23:02;101719.09;;;18.27;60.08
64908;BME280;51412;52.236;5.188;2022-07-29T02:25:29;101721.00;;;18.26;59.90
64908;BME280;51412;52.236;5.188;2022-07-29T02:27:57;101727.94;;;18.27;59.87
64908;BME280;51412;52.236;5.188;2022-07-29T02:30:27;101718.31;;;18.26;59.51
64908;BME280;51412;52.236;5.188;2022-07-29T02:32:54;101722.19;;;18.25;59.25
64908;BME280;51412;52.236;5.188;2022-07-29T02:35:22;101717.97;;;18.24;59.61
64908;BME280;51412;52.236;5.188;2022-07-29T02:37:50;101716.81;;;18.25;59.32
64908;BME280;51412;52.236;5.188;2022-07-29T02:40:33;101717.97;;;18.24;59.34
64908;BME280;51412;52.236;5.188;2022-07-29T02:43:01;101710.25;;;18.26;59.89
64908;BME280;51412;52.236;5.188;2022-07-29T02:45:29;101709.50;;;18.26;59.38
64908;BME280;51412;52.236;5.188;2022-07-29T02:47:57;101703.34;;;18.25;59.22
64908;BME280;51412;52.236;5.188;2022-07-29T02:50:30;101698.78;;;18.18;59.33
64908;BME280;51412;52.236;5.188;2022-07-29T02:53:01;101708.75;;;18.25;59.91
64908;BME280;51412;52.236;5.188;2022-07-29T02:55:32;101707.19;;;18.24;59.34
64908;BME280;51412;52.236;5.188;2022-07-29T02:58:02;101707.19;;;18.24;59.29
64908;BME280;51412;52.236;5.188;2022-07-29T03:00:31;101711.03;;;18.23;59.50
64908;BME280;51412;52.236;5.188;2022-07-29T03:03:01;101707.22;;;18.21;59.61
64908;BME280;51412;52.236;5.188;2022-07-29T03:05:32;101707.22;;;18.21;59.65
64908;BME280;51412;52.236;5.188;2022-07-29T03:08:01;101711.84;;;18.20;59.32
64908;BME280;51412;52.236;5.188;2022-07-29T03:10:29;101701.44;;;18.22;59.61
64908;BME280;51412;52.236;5.188;2022-07-29T03:12:57;101705.66;;;18.23;59.85
64908;BME280;51412;52.236;5.188;2022-07-29T03:15:25;101698.34;;;18.24;59.27
64908;BME280;51412;52.236;5.188;2022-07-29T03:17:52;101692.63;;;18.22;59.07
64908;BME280;51412;52.236;5.188;2022-07-29T03:20:20;101691.06;;;18.21;59.26
64908;BME280;51412;52.236;5.188;2022-07-29T03:22:49;101691.47;;;18.19;59.38
64908;BME280;51412;52.236;5.188;2022-07-29T03:25:17;101692.63;;;18.18;59.64
64908;BME280;51412;52.236;5.188;2022-07-29T03:27:45;101695.31;;;18.18;59.52
64908;BME280;51412;52.236;5.188;2022-07-29T03:30:13;101683.00;;;18.17;59.23
64908;BME280;51412;52.236;5.188;2022-07-29T03:32:41;101687.25;;;18.18;58.92
64908;BME280;51412;52.236;5.188;2022-07-29T03:35:08;101677.63;;;18.17;59.04
64908;BME280;51412;52.236;5.188;2022-07-29T03:37:34;101688.78;;;18.19;59.27
64908;BME280;51412;52.236;5.188;2022-07-29T03:40:06;101684.16;;;18.20;58.79
64908;BME280;51412;52.236;5.188;2022-07-29T03:42:36;101684.94;;;18.20;59.26
64908;BME280;51412;52.236;5.188;2022-07-29T03:45:07;101678.38;;;18.21;59.68
64908;BME280;51412;52.236;5.188;2022-07-29T03:47:38;101678.38;;;18.21;59.01
64908;BME280;51412;52.236;5.188;2022-07-29T03:50:08;101678.00;;;18.19;58.88
64908;BME280;51412;52.236;5.188;2022-07-29T03:52:37;101682.25;;;18.20;58.57
64908;BME280;51412;52.236;5.188;2022-07-29T03:55:06;101684.16;;;18.20;59.17
64908;BME280;51412;52.236;5.188;2022-07-29T03:57:33;101684.94;;;18.20;58.84
64908;BME280;51412;52.236;5.188;2022-07-29T04:00:02;101672.63;;;18.19;58.86
64908;BME280;51412;52.236;5.188;2022-07-29T04:02:30;101681.88;;;18.18;58.82
64908;BME280;51412;52.236;5.188;2022-07-29T04:04:58;101675.31;;;18.19;58.94
64908;BME280;51412;52.236;5.188;2022-07-29T04:07:24;101675.72;;;18.17;58.83
64908;BME280;51412;52.236;5.188;2022-07-29T04:09:50;101674.94;;;18.17;58.79
64908;BME280;51412;52.236;5.188;2022-07-29T04:12:18;101684.56;;;18.18;59.38
64908;BME280;51412;52.236;5.188;2022-07-29T04:14:46;101681.47;;;18.20;59.43
64908;BME280;51412;52.236;5.188;2022-07-29T04:17:12;101674.19;;;18.20;59.19
64908;BME280;51412;52.236;5.188;2022-07-29T04:19:39;101678.78;;;18.20;58.96
64908;BME280;51412;52.236;5.188;2022-07-29T04:22:05;101672.63;;;18.19;58.95
64908;BME280;51412;52.236;5.188;2022-07-29T04:24:32;101676.47;;;18.22;58.79
64908;BME280;51412;52.236;5.188;2022-07-29T04:26:58;101671.50;;;18.20;59.26
64908;BME280;51412;52.236;5.188;2022-07-29T04:29:26;101669.94;;;18.19;58.90
64908;BME280;51412;52.236;5.188;2022-07-29T04:31:52;101669.53;;;18.21;59.36
64908;BME280;51412;52.236;5.188;2022-07-29T04:34:19;101671.09;;;18.22;59.71
64908;BME280;51412;52.236;5.188;2022-07-29T04:36:45;101677.22;;;18.26;59.26
64908;BME280;51412;52.236;5.188;2022-07-29T04:39:12;101677.97;;;18.26;59.00
64908;BME280;51412;52.236;5.188;2022-07-29T04:41:38;101674.91;;;18.24;59.05
64908;BME280;51412;52.236;5.188;2022-07-29T04:44:04;101680.66;;;18.26;59.67
64908;BME280;51412;52.236;5.188;2022-07-29T04:46:32;101677.97;;;18.26;59.45
64908;BME280;51412;52.236;5.188;2022-07-29T04:48:59;101679.50;;;18.27;59.41
64908;BME280;51412;52.236;5.188;2022-07-29T04:51:25;101681.44;;;18.27;59.11
64908;BME280;51412;52.236;5.188;2022-07-29T04:53:52;101677.97;;;18.26;59.82
64908;BME280;51412;52.236;5.188;2022-07-29T04:56:18;101675.28;;;18.26;59.59
64908;BME280;51412;52.236;5.188;2022-07-29T04:58:45;101678.75;;;18.23;59.66
64908;BME280;51412;52.236;5.188;2022-07-29T05:01:11;101676.06;;;18.23;59.31
64908;BME280;51412;52.236;5.188;2022-07-29T05:03:39;101678.75;;;18.23;59.43
64908;BME280;51412;52.236;5.188;2022-07-29T05:06:06;101678.00;;;18.23;59.42
64908;BME280;51412;52.236;5.188;2022-07-29T05:08:32;101679.50;;;18.24;59.51
64908;BME280;51412;52.236;5.188;2022-07-29T05:10:58;101686.84;;;18.23;59.81
64908;BME280;51412;52.236;5.188;2022-07-29T05:13:25;101686.44;;;18.25;59.72
64908;BME280;51412;52.236;5.188;2022-07-29T05:15:51;101683.34;;;18.26;59.73
64908;BME280;51412;52.236;5.188;2022-07-29T05:18:18;101683.38;;;18.23;59.83
64908;BME280;51412;52.236;5.188;2022-07-29T05:20:46;101684.53;;;18.25;59.90
64908;BME280;51412;52.236;5.188;2022-07-29T05:23:12;101690.25;;;18.27;59.96
64908;BME280;51412;52.236;5.188;2022-07-29T05:25:39;101688.72;;;18.30;59.82
64908;BME280;51412;52.236;5.188;2022-07-29T05:28:06;101687.16;;;18.32;59.51
64908;BME280;51412;52.236;5.188;2022-07-29T05:30:32;101690.19;;;18.34;60.06
64908;BME280;51412;52.236;5.188;2022-07-29T05:32:59;101684.44;;;18.36;59.57
64908;BME280;51412;52.236;5.188;2022-07-29T05:35:25;101684.81;;;18.38;60.25
64908;BME280;51412;52.236;5.188;2022-07-29T05:37:53;101683.22;;;18.44;59.81
64908;BME280;51412;52.236;5.188;2022-07-29T05:40:20;101684.72;;;18.49;59.45
64908;BME280;51412;52.236;5.188;2022-07-29T05:42:46;101687.81;;;18.51;59.24
64908;BME280;51412;52.236;5.188;2022-07-29T05:45:13;101688.56;;;18.51;59.44
64908;BME280;51412;52.236;5.188;2022-07-29T05:47:39;101684.31;;;18.54;59.90
64908;BME280;51412;52.236;5.188;2022-07-29T05:50:06;101690.81;;;18.57;59.31
64908;BME280;51412;52.236;5.188;2022-07-29T05:52:33;101692.34;;;18.58;60.58
64908;BME280;51412;52.236;5.188;2022-07-29T05:55:01;101696.16;;;18.64;59.75
64908;BME280;51412;52.236;5.188;2022-07-29T05:57:29;101696.47;;;18.69;60.63
64908;BME280;51412;52.236;5.188;2022-07-29T05:59:56;101696.84;;;18.72;60.59
64908;BME280;51412;52.236;5.188;2022-07-29T06:02:22;101697.63;;;18.72;59.92
64908;BME280;51412;52.236;5.188;2022-07-29T06:04:49;101701.09;;;18.73;59.77
64908;BME280;51412;52.236;5.188;2022-07-29T06:07:15;101703.78;;;18.73;59.45
64908;BME280;51412;52.236;5.188;2022-07-29T06:09:42;101709.16;;;18.73;59.55
64908;BME280;51412;52.236;5.188;2022-07-29T06:12:10;101713.38;;;18.74;60.05
64908;BME280;51412;52.236;5.188;2022-07-29T06:14:36;101701.44;;;18.75;59.60
64908;BME280;51412;52.236;5.188;2022-07-29T06:17:03;101699.13;;;18.77;60.09
64908;BME280;51412;52.236;5.188;2022-07-29T06:19:30;101692.56;;;18.78;60.01
64908;BME280;51412;52.236;5.188;2022-07-29T06:21:57;101692.56;;;18.78;60.07
64908;BME280;51412;52.236;5.188;2022-07-29T06:24:23;101689.88;;;18.78;60.26
64908;BME280;51412;52.236;5.188;2022-07-29T06:26:50;101691.44;;;18.75;60.07
64908;BME280;51412;52.236;5.188;2022-07-29T06:29:18;101683.34;;;18.75;59.88
64908;BME280;51412;52.236;5.188;2022-07-29T06:31:44;101696.84;;;18.72;59.80
64908;BME280;51412;52.236;5.188;2022-07-29T06:34:11;101698.00;;;18.71;59.87
64908;BME280;51412;52.236;5.188;2022-07-29T06:36:37;101694.53;;;18.74;59.93
64908;BME280;51412;52.236;5.188;2022-07-29T06:39:05;101706.03;;;18.78;60.17
64908;BME280;51412;52.236;5.188;2022-07-29T06:41:32;101708.28;;;18.83;60.05
64908;BME280;51412;52.236;5.188;2022-07-29T06:43:58;101709.44;;;18.85;60.20
64908;BME280;51412;52.236;5.188;2022-07-29T06:46:26;101707.91;;;18.88;59.78
64908;BME280;51412;52.236;5.188;2022-07-29T06:48:53;101715.97;;;18.88;59.98
64908;BME280;51412;52.236;5.188;2022-07-29T06:51:20;101721.28;;;18.95;60.09
64908;BME280;51412;52.236;5.188;2022-07-29T06:53:47;101725.09;;;19.01;59.32
64908;BME280;51412;52.236;5.188;2022-07-29T06:56:13;101729.69;;;19.05;59.11
64908;BME280;51412;52.236;5.188;2022-07-29T06:58:40;101742.34;;;19.08;58.93
64908;BME280;51412;52.236;5.188;2022-07-29T07:01:07;101737.34;;;19.10;59.08
64908;BME280;51412;52.236;5.188;2022-07-29T07:03:34;101742.72;;;19.10;58.41
64908;BME280;51412;52.236;5.188;2022-07-29T07:06:01;101741.19;;;19.09;58.52
64908;BME280;51412;52.236;5.188;2022-07-29T07:08:28;101747.31;;;19.13;59.36
64908;BME280;51412;52.236;5.188;2022-07-29T07:10:55;101757.88;;;19.34;59.77
64908;BME280;51412;52.236;5.188;2022-07-29T07:13:22;101750.69;;;19.59;58.88
64908;BME280;51412;52.236;5.188;2022-07-29T07:15:49;101751.59;;;19.83;58.16
64908;BME280;51412;52.236;5.188;2022-07-29T07:18:16;101747.88;;;20.04;57.70
64908;BME280;51412;52.236;5.188;2022-07-29T07:20:45;101752.25;;;20.22;57.20
64908;BME280;51412;52.236;5.188;2022-07-29T07:23:11;101739.31;;;20.36;56.66
64908;BME280;51412;52.236;5.188;2022-07-29T07:25:38;101748.44;;;20.46;56.23
64908;BME280;51412;52.236;5.188;2022-07-29T07:28:04;101746.69;;;20.60;56.21
64908;BME280;51412;52.236;5.188;2022-07-29T07:30:30;101748.09;;;20.68;55.68
64908;BME280;51412;52.236;5.188;2022-07-29T07:32:57;101739.59;;;20.69;55.40
64908;BME280;51412;52.236;5.188;2022-07-29T07:35:23;101740.72;;;20.72;55.53
64908;BME280;51412;52.236;5.188;2022-07-29T07:37:53;101729.47;;;20.77;55.54
64908;BME280;51412;52.236;5.188;2022-07-29T07:40:19;101732.78;;;20.85;55.37
64908;BME280;51412;52.236;5.188;2022-07-29T07:42:46;101732.31;;;20.90;55.36
64908;BME280;51412;52.236;5.188;2022-07-29T07:45:12;101727.63;;;20.94;55.09
64908;BME280;51412;52.236;5.188;2022-07-29T07:47:39;101724.03;;;21.01;54.96
64908;BME280;51412;52.236;5.188;2022-07-29T07:50:08;101723.13;;;21.08;54.88
64908;BME280;51412;52.236;5.188;2022-07-29T07:52:46;101714.50;;;21.16;54.53
64908;BME280;51412;52.236;5.188;2022-07-29T07:55:14;101721.22;;;21.28;54.50
64908;BME280;51412;52.236;5.188;2022-07-29T07:57:40;101726.81;;;21.37;54.23
64908;BME280;51412;52.236;5.188;2022-07-29T08:00:08;101721.63;;;21.47;54.07
64908;BME280;51412;52.236;5.188;2022-07-29T08:02:34;101726.19;;;21.50;53.71
64908;BME280;51412;52.236;5.188;2022-07-29T08:05:01;101713.75;;;21.56;53.42
64908;BME280;51412;52.236;5.188;2022-07-29T08:07:27;101714.28;;;21.67;53.34
64908;BME280;51412;52.236;5.188;2022-07-29T08:09:54;101716.44;;;21.76;52.83
64908;BME280;51412;52.236;5.188;2022-07-29T08:12:22;101719.75;;;21.84;52.30
64908;BME280;51412;52.236;5.188;2022-07-29T08:14:48;101724.16;;;21.94;51.78
64908;BME280;51412;52.236;5.188;2022-07-29T08:17:15;101717.31;;;21.90;51.78
64908;BME280;51412;52.236;5.188;2022-07-29T08:19:41;101714.06;;;21.78;51.87
64908;BME280;51412;52.236;5.188;2022-07-29T08:22:08;101725.19;;;21.64;52.15
64908;BME280;51412;52.236;5.188;2022-07-29T08:24:35;101719.19;;;21.52;52.63
64908;BME280;51412;52.236;5.188;2022-07-29T08:27:18;101727.88;;;21.44;53.35
64908;BME280;51412;52.236;5.188;2022-07-29T08:29:46;101730.22;;;21.42;53.09
64908;BME280;51412;52.236;5.188;2022-07-29T08:32:12;101727.19;;;21.40;53.47
64908;BME280;51412;52.236;5.188;2022-07-29T08:34:39;101726.78;;;21.41;53.66
64908;BME280;51412;52.236;5.188;2022-07-29T08:37:05;101724.06;;;21.41;53.36
64908;BME280;51412;52.236;5.188;2022-07-29T08:39:32;101721.31;;;21.45;52.99
64908;BME280;51412;52.236;5.188;2022-07-29T08:41:58;101723.91;;;21.48;52.75
64908;BME280;51412;52.236;5.188;2022-07-29T08:44:25;101725.25;;;21.60;52.74
64908;BME280;51412;52.236;5.188;2022-07-29T08:46:53;101729.34;;;21.68;52.55
64908;BME280;51412;52.236;5.188;2022-07-29T08:49:20;101728.78;;;21.77;52.21
64908;BME280;51412;52.236;5.188;2022-07-29T08:51:46;101732.09;;;21.85;51.95
64908;BME280;51412;52.236;5.188;2022-07-29T08:54:16;101740.91;;;21.89;51.40
64908;BME280;51412;52.236;5.188;2022-07-29T08:56:43;101734.56;;;21.96;51.67
64908;BME280;51412;52.236;5.188;2022-07-29T08:59:11;101726.56;;;22.09;51.40
64908;BME280;51412;52.236;5.188;2022-07-29T09:01:38;101731.50;;;22.30;51.38
64908;BME280;51412;52.236;5.188;2022-07-29T09:04:10;101729.41;;;22.54;51.01
64908;BME280;51412;52.236;5.188;2022-07-29T09:06:42;101739.47;;;22.70;49.97
64908;BME280;51412;52.236;5.188;2022-07-29T09:09:10;101731.16;;;22.78;49.82
64908;BME280;51412;52.236;5.188;2022-07-29T09:11:37;101737.94;;;22.86;49.59
64908;BME280;51412;52.236;5.188;2022-07-29T09:14:03;101732.66;;;22.95;49.03
64908;BME280;51412;52.236;5.188;2022-07-29T09:16:46;101731.94;;;23.08;48.81
64908;BME280;51412;52.236;5.188;2022-07-29T09:19:21;101740.19;;;23.20;48.10
64908;BME280;51412;52.236;5.188;2022-07-29T09:21:48;101729.25;;;23.37;48.09
64908;BME280;51412;52.236;5.188;2022-07-29T09:24:24;101733.53;;;23.51;47.88
64908;BME280;51412;52.236;5.188;2022-07-29T09:26:51;101725.06;;;23.62;47.70
64908;BME280;51412;52.236;5.188;2022-07-29T09:29:19;101729.84;;;23.70;46.83
64908;BME280;51412;52.236;5.188;2022-07-29T09:31:48;101716.41;;;23.80;46.19
64908;BME280;51412;52.236;5.188;2022-07-29T09:34:17;101720.63;;;23.81;46.59
64908;BME280;51412;52.236;5.188;2022-07-29T09:36:49;101717.31;;;23.90;46.50
64908;BME280;51412;52.236;5.188;2022-07-29T09:39:28;101717.00;;;24.00;45.98
64908;BME280;51412;52.236;5.188;2022-07-29T09:41:56;101708.19;;;24.22;45.86
64908;BME280;51412;52.236;5.188;2022-07-29T09:44:23;101708.59;;;24.33;45.45
64908;BME280;51412;52.236;5.188;2022-07-29T09:46:57;101717.28;;;24.41;45.47
64908;BME280;51412;52.236;5.188;2022-07-29T09:49:25;101712.13;;;24.56;44.95
64908;BME280;51412;52.236;5.188;2022-07-29T09:52:06;101713.13;;;24.49;44.90
64908;BME280;51412;52.236;5.188;2022-07-29T09:54:34;101712.69;;;24.51;44.70
64908;BME280;51412;52.236;5.188;2022-07-29T09:57:04;101714.97;;;24.52;45.09
64908;BME280;51412;52.236;5.188;2022-07-29T09:59:31;101723.22;;;24.49;44.83
64908;BME280;51412;52.236;5.188;2022-07-29T10:01:58;101718.56;;;24.49;44.97
64908;BME280;51412;52.236;5.188;2022-07-29T10:04:36;101722.66;;;24.54;45.76
64908;BME280;51412;52.236;5.188;2022-07-29T10:07:04;101725.69;;;24.69;45.14
64908;BME280;51412;52.236;5.188;2022-07-29T10:09:31;101719.41;;;24.94;44.84
64908;BME280;51412;52.236;5.188;2022-07-29T10:12:08;101719.19;;;25.24;44.05
64908;BME280;51412;52.236;5.188;2022-07-29T10:14:36;101717.81;;;25.50;44.50
64908;BME280;51412;52.236;5.188;2022-07-29T10:17:04;101716.28;;;25.71;43.52
64908;BME280;51412;52.236;5.188;2022-07-29T10:19:31;101718.31;;;25.89;43.20
64908;BME280;51412;52.236;5.188;2022-07-29T10:21:59;101713.47;;;25.94;42.33
64908;BME280;51412;52.236;5.188;2022-07-29T10:24:29;101711.97;;;25.93;42.24
64908;BME280;51412;52.236;5.188;2022-07-29T10:26:57;101713.69;;;26.09;42.61
64908;BME280;51412;52.236;5.188;2022-07-29T10:29:24;101706.47;;;26.15;42.61
64908;BME280;51412;52.236;5.188;2022-07-29T10:32:00;101717.38;;;26.24;42.07
64908;BME280;51412;52.236;5.188;2022-07-29T10:34:39;101708.44;;;26.33;41.12
64908;BME280;51412;52.236;5.188;2022-07-29T10:37:20;101712.84;;;26.21;42.37
64908;BME280;51412;52.236;5.188;2022-07-29T10:40:01;101712.38;;;26.22;42.15
64908;BME280;51412;52.236;5.188;2022-07-29T10:42:52;101713.44;;;26.25;43.13
64908;BME280;51412;52.236;5.188;2022-07-29T10:45:20;101711.66;;;26.41;42.30
64908;BME280;51412;52.236;5.188;2022-07-29T10:47:46;101709.53;;;26.54;42.11
64908;BME280;51412;52.236;5.188;2022-07-29T10:50:13;101711.22;;;26.70;42.13
64908;BME280;51412;52.236;5.188;2022-07-29T10:52:53;101708.22;;;26.86;41.13
64908;BME280;51412;52.236;5.188;2022-07-29T10:55:34;101707.59;;;27.01;40.82
64908;BME280;51412;52.236;5.188;2022-07-29T10:58:12;101714.53;;;27.11;40.71
64908;BME280;51412;52.236;5.188;2022-07-29T11:00:40;101712.13;;;27.22;41.12
64908;BME280;51412;52.236;5.188;2022-07-29T11:03:06;101714.50;;;27.30;39.80
64908;BME280;51412;52.236;5.188;2022-07-29T11:05:52;101720.78;;;27.12;39.96
64908;BME280;51412;52.236;5.188;2022-07-29T11:08:20;101713.81;;;26.83;40.57
64908;BME280;51412;52.236;5.188;2022-07-29T11:10:51;101717.00;;;26.81;41.05
64908;BME280;51412;52.236;5.188;2022-07-29T11:13:50;101721.53;;;26.84;40.67
64908;BME280;51412;52.236;5.188;2022-07-29T11:16:18;101713.34;;;26.84;40.34
64908;BME280;51412;52.236;5.188;2022-07-29T11:19:18;101713.97;;;26.79;40.60
64908;BME280;51412;52.236;5.188;2022-07-29T11:21:45;101710.03;;;26.89;40.68
64908;BME280;51412;52.236;5.188;2022-07-29T11:24:15;101717.28;;;26.93;40.35
64908;BME280;51412;52.236;5.188;2022-07-29T11:26:44;101715.00;;;27.00;40.42
64908;BME280;51412;52.236;5.188;2022-07-29T11:29:19;101715.75;;;27.10;40.14
64908;BME280;51412;52.236;5.188;2022-07-29T11:31:50;101718.94;;;27.18;40.50
64908;BME280;51412;52.236;5.188;2022-07-29T11:34:22;101707.69;;;27.25;40.89
64908;BME280;51412;52.236;5.188;2022-07-29T11:37:17;101707.38;;;27.32;39.63
64908;BME280;51412;52.236;5.188;2022-07-29T11:39:45;101712.28;;;27.00;40.34
64908;BME280;51412;52.236;5.188;2022-07-29T11:42:42;101698.97;;;27.02;40.92
64908;BME280;51412;52.236;5.188;2022-07-29T11:45:12;101711.22;;;27.07;40.43
64908;BME280;51412;52.236;5.188;2022-07-29T11:47:40;101715.78;;;27.01;40.88
64908;BME280;51412;52.236;5.188;2022-07-29T11:50:11;101716.53;;;27.01;40.76
64908;BME280;51412;52.236;5.188;2022-07-29T11:52:39;101720.16;;;27.08;40.62
64908;BME280;51412;52.236;5.188;2022-07-29T11:55:11;101718.66;;;27.06;40.39
64908;BME280;51412;52.236;5.188;2022-07-29T11:57:47;101709.53;;;27.10;40.71
64908;BME280;51412;52.236;5.188;2022-07-29T12:00:22;101706.22;;;27.15;40.68
64908;BME280;51412;52.236;5.188;2022-07-29T12:02:52;101712.13;;;27.13;40.05
64908;BME280;51412;52.236;5.188;2022-07-29T12:05:19;101715.63;;;26.95;40.67
64908;BME280;51412;52.236;5.188;2022-07-29T12:07:47;101707.75;;;27.06;40.50
64908;BME280;51412;52.236;5.188;2022-07-29T12:10:14;101706.81;;;27.19;40.22
64908;BME280;51412;52.236;5.188;2022-07-29T12:12:40;101708.75;;;27.28;40.52
64908;BME280;51412;52.236;5.188;2022-07-29T12:15:16;101712.97;;;27.47;41.16
64908;BME280;51412;52.236;5.188;2022-07-29T12:17:46;101712.31;;;27.62;39.64
64908;BME280;51412;52.236;5.188;2022-07-29T12:20:12;101702.00;;;27.66;39.32
64908;BME280;51412;52.236;5.188;2022-07-29T12:22:42;101711.72;;;27.58;39.38
64908;BME280;51412;52.236;5.188;2022-07-29T12:25:11;101713.41;;;27.55;39.61
64908;BME280;51412;52.236;5.188;2022-07-29T12:27:39;101718.69;;;27.59;40.12
64908;BME280;51412;52.236;5.188;2022-07-29T12:30:08;101712.41;;;27.77;39.81
64908;BME280;51412;52.236;5.188;2022-07-29T12:32:38;101722.38;;;27.89;39.25
64908;BME280;51412;52.236;5.188;2022-07-29T12:35:06;101714.28;;;27.95;38.85
64908;BME280;51412;52.236;5.188;2022-07-29T12:37:36;101707.03;;;27.92;38.56
64908;BME280;51412;52.236;5.188;2022-07-29T12:40:04;101710.66;;;27.88;38.49
64908;BME280;51412;52.236;5.188;2022-07-29T12:42:31;101717.19;;;27.91;38.82
64908;BME280;51412;52.236;5.188;2022-07-29T12:44:58;101710.94;;;28.00;38.23
64908;BME280;51412;52.236;5.188;2022-07-29T12:47:24;101723.13;;;27.89;38.50
64908;BME280;51412;52.236;5.188;2022-07-29T12:50:07;101716.44;;;27.90;38.54
64908;BME280;51412;52.236;5.188;2022-07-29T12:52:35;101710.78;;;28.03;38.86
64908;BME280;51412;52.236;5.188;2022-07-29T12:55:02;101708.19;;;28.00;38.54
64908;BME280;51412;52.236;5.188;2022-07-29T12:57:29;101714.88;;;27.99;39.07
64908;BME280;51412;52.236;5.188;2022-07-29T13:00:03;101707.75;;;28.01;37.98